sensor_id;sensor_type;location;lat;lon;timestamp;temperature;humidity
40249;DHT22;25969;49.970;11.062;2022-11-15T05:00:54;7.80;99.90
40249;DHT22;25969;49.970;11.062;2022-11-15T05:11:13;7.30;99.90
40249;DHT22;25969;49.970;11.062;2022-11-15T05:21:33;7.40;99.90
40249;DHT22;25969;49.970;11.062;2022-11-15T05:31:53;7.30;99.90
40249;DHT22;25969;49.970;11.062;2022-11-15T05:42:14;7.40;99.90
40249;DHT22;25969;49.970;11.062;2022-11-15T05:52:37;7.20;99.90
40249;DHT22;25969;49.970;11.062;2022-11-15T06:02:56;7.30;99.90
40249;DHT22;25969;49.970;11.062;2022-11-15T06:13:15;7.30;99.90
40249;DHT22;25969;49.970;11.062;2022-11-15T06:23:35;7.60;99.90
40249;DHT22;25969;49.970;11.062;2022-11-15T06:33:55;7.80;99.90
40249;DHT22;25969;49.970;11.062;2022-11-15T06:44:14;7.90;99.90
40249;DHT22;25969;49.970;11.062;2022-11-15T06:54:33;8.10;99.90
40249;DHT22;25969;49.970;11.062;2022-11-15T07:04:53;8.30;99.90
40249;DHT22;25969;49.970;11.062;2022-11-15T07:15:12;7.90;99.90
40249;DHT22;25969;49.970;11.062;2022-11-15T07:25:32;7.00;99.90
40249;DHT22;25969;49.970;11.062;2022-11-15T07:35:51;7.90;99.90
40249;DHT22;25969;49.970;11.062;2022-11-15T07:46:10;8.70;99.90
40249;DHT22;25969;49.970;11.062;2022-11-15T07:56:30;9.40;99.90
40249;DHT22;25969;49.970;11.062;2022-11-15T08:06:49;13.30;89.60
40249;DHT22;25969;49.970;11.062;2022-11-15T08:17:09;15.60;78.80
40249;DHT22;25969;49.970;11.062;2022-11-15T08:27:28;16.70;67.20
40249;DHT22;25969;49.970;11.062;2022-11-15T08:37:48;16.80;65.60
40249;DHT22;25969;49.970;11.062;2022-11-15T08:48:07;18.30;60.60
40249;DHT22;25969;49.970;11.062;2022-11-15T08:58:27;19.80;56.30
40249;DHT22;25969;49.970;11.062;2022-11-15T09:08:46;20.40;53.60
40249;DHT22;25969;49.970;11.062;2022-11-15T09:19:06;22.50;49.00
40249;DHT22;25969;49.970;11.062;2022-11-15T09:29:26;23.60;46.00
40249;DHT22;25969;49.970;11.062;2022-11-15T09:39:45;21.00;49.40
40249;DHT22;25969;49.970;11.062;2022-11-15T10:00:38;25.40;45.60
40249;DHT22;25969;49.970;11.062;2022-11-15T10:10:44;23.80;47.90
40249;DHT22;25969;49.970;11.062;2022-11-15T10:20:50;25.30;44.50
40249;DHT22;25969;49.970;11.062;2022-11-15T10:30:56;26.50;43.30
40249;DHT22;25969;49.970;11.062;2022-11-15T10:41:08;27.60;40.30
40249;DHT22;25969;49.970;11.062;2022-11-15T10:51:27;27.00;40.60
40249;DHT22;25969;49.970;11.062;2022-11-15T11:01:29;27.60;40.30
40249;DHT22;25969;49.970;11.062;2022-11-15T11:11:52;29.30;37.70
40249;DHT22;25969;49.970;11.062;2022-11-15T11:32:04;28.80;37.10
40249;DHT22;25969;49.970;11.062;2022-11-15T11:52:31;28.90;36.50
40249;DHT22;25969;49.970;11.062;2022-11-15T12:02:43;29.10;35.70
40249;DHT22;25969;49.970;11.062;2022-11-15T12:13:00;22.00;46.90
40249;DHT22;25969;49.970;11.062;2022-11-15T12:23:11;27.40;37.70
40249;DHT22;25969;49.970;11.062;2022-11-15T12:33:48;25.80;41.10
40249;DHT22;25969;49.970;11.062;2022-11-15T12:43:50;22.90;45.50
40249;DHT22;25969;49.970;11.062;2022-11-15T12:53:51;20.90;51.20
40249;DHT22;25969;49.970;11.062;2022-11-15T13:24:38;17.80;60.70
40249;DHT22;25969;49.970;11.062;2022-11-15T13:34:43;16.50;66.70
40249;DHT22;25969;49.970;11.062;2022-11-15T13:55:04;15.90;68.10
40249;DHT22;25969;49.970;11.062;2022-11-15T14:05:22;15.20;71.20
40249;DHT22;25969;49.970;11.062;2022-11-15T14:26:10;17.20;63.90
40249;DHT22;25969;49.970;11.062;2022-11-15T14:35:51;15.60;68.70
40249;DHT22;25969;49.970;11.062;2022-11-15T14:45:52;15.20;71.10
40249;DHT22;25969;49.970;11.062;2022-11-15T14:55:53;14.40;74.80
40249;DHT22;25969;49.970;11.062;2022-11-15T15:05:54;14.80;72.90
40249;DHT22;25969;49.970;11.062;2022-11-15T15:15:55;13.50;79.50
40249;DHT22;25969;49.970;11.062;2022-11-15T15:25:56;12.90;82.50
40249;DHT22;25969;49.970;11.062;2022-11-15T15:35:57;12.80;83.70
40249;DHT22;25969;49.970;11.062;2022-11-15T15:45:57;12.40;86.20
40249;DHT22;25969;49.970;11.062;2022-11-15T15:55:59;12.20;87.70
40249;DHT22;25969;49.970;11.062;2022-11-15T16:06:00;11.80;90.40
40249;DHT22;25969;49.970;11.062;2022-11-15T16:16:02;11.70;90.80
40249;DHT22;25969;49.970;11.062;2022-11-15T16:26:21;11.70;91.00
40249;DHT22;25969;49.970;11.062;2022-11-15T16:36:24;11.90;90.80
40249;DHT22;25969;49.970;11.062;2022-11-15T16:46:26;11.70;91.30
40249;DHT22;25969;49.970;11.062;2022-11-15T16:56:29;11.60;91.20
40249;DHT22;25969;49.970;11.062;2022-11-15T17:06:30;11.60;90.90
40249;DHT22;25969;49.970;11.062;2022-11-15T17:16:31;11.50;91.20
40249;DHT22;25969;49.970;11.062;2022-11-15T17:26:31;11.40;91.80
40249;DHT22;25969;49.970;11.062;2022-11-15T17:36:33;11.70;90.90
40249;DHT22;25969;49.970;11.062;2022-11-15T17:46:33;11.50;91.00
40249;DHT22;25969;49.970;11.062;2022-11-15T17:56:38;11.50;91.20
40249;DHT22;25969;49.970;11.062;2022-11-15T18:06:40;11.40;91.20
40249;DHT22;25969;49.970;11.062;2022-11-15T18:16:41;11.30;92.00
40249;DHT22;25969;49.970;11.062;2022-11-15T18:26:42;11.20;92.20
40249;DHT22;25969;49.970;11.062;2022-11-15T18:36:43;11.20;92.50
40249;DHT22;25969;49.970;11.062;2022-11-15T18:46:43;11.20;93.20
40249;DHT22;25969;49.970;11.062;2022-11-15T18:56:44;11.20;93.40
40249;DHT22;25969;49.970;11.062;2022-11-15T19:06:48;11.20;93.70
40249;DHT22;25969;49.970;11.062;2022-11-15T19:16:49;11.10;94.10
40249;DHT22;25969;49.970;11.062;2022-11-15T19:26:51;11.00;94.60
40249;DHT22;25969;49.970;11.062;2022-11-15T19:36:52;10.90;95.30
40249;DHT22;25969;49.970;11.062;2022-11-15T19:46:52;10.80;96.00
40249;DHT22;25969;49.970;11.062;2022-11-15T19:56:53;10.60;97.20
40249;DHT22;25969;49.970;11.062;2022-11-15T20:06:54;10.30;98.40
40249;DHT22;25969;49.970;11.062;2022-11-15T20:16:55;10.20;99.50
40249;DHT22;25969;49.970;11.062;2022-11-15T20:26:56;10.00;99.80
40249;DHT22;25969;49.970;11.062;2022-11-15T20:36:57;9.90;99.90
40249;DHT22;25969;49.970;11.062;2022-11-15T20:46:57;10.00;99.90
40249;DHT22;25969;49.970;11.062;2022-11-15T20:56:58;9.80;99.90
40249;DHT22;25969;49.970;11.062;2022-11-15T21:06:59;9.70;99.90
40249;DHT22;25969;49.970;11.062;2022-11-15T21:16:59;9.70;99.90
40249;DHT22;25969;49.970;11.062;2022-11-15T21:27:00;9.40;99.90
40249;DHT22;25969;49.970;11.062;2022-11-15T21:37:01;9.40;99.90
40249;DHT22;25969;49.970;11.062;2022-11-15T21:47:02;9.20;99.90
40249;DHT22;25969;49.970;11.062;2022-11-15T21:57:03;9.10;99.90
40249;DHT22;25969;49.970;11.062;2022-11-15T22:07:04;8.90;99.90
40249;DHT22;25969;49.970;11.062;2022-11-15T22:17:05;8.70;99.90
40249;DHT22;25969;49.970;11.062;2022-11-15T22:27:05;8.50;99.90
40249;DHT22;25969;49.970;11.062;2022-11-15T22:37:06;8.30;99.90
40249;DHT22;25969;49.970;11.062;2022-11-15T22:47:07;8.20;99.90
40249;DHT22;25969;49.970;11.062;2022-11-15T22:57:08;8.10;99.90
40249;DHT22;25969;49.970;11.062;2022-11-15T23:07:09;7.90;99.90
40249;DHT22;25969;49.970;11.062;2022-11-15T23:17:09;7.90;99.90
40249;DHT22;25969;49.970;11.062;2022-11-15T23:27:10;7.70;99.90
40249;DHT22;25969;49.970;11.062;2022-11-15T23:37:14;7.60;99.90
